sensor_id;sensor_type;location;lat;lon;timestamp;P1;durP1;ratioP1;P2;durP2;ratioP2
5841;SDS011;2947;52.276;9.946;2022-12-18T00:01:04;20.33;;;7.70;;
5841;SDS011;2947;52.276;9.946;2022-12-18T00:03:37;18.40;;;8.37;;
5841;SDS011;2947;52.276;9.946;2022-12-18T00:06:03;17.13;;;7.67;;
5841;SDS011;2947;52.276;9.946;2022-12-18T00:08:28;17.30;;;7.60;;
5841;SDS011;2947;52.276;9.946;2022-12-18T00:10:54;17.20;;;8.43;;
5841;SDS011;2947;52.276;9.946;2022-12-18T00:13:20;15.03;;;7.30;;
5841;SDS011;2947;52.276;9.946;2022-12-18T00:15:46;19.17;;;7.57;;
5841;SDS011;2947;52.276;9.946;2022-12-18T00:18:11;19.10;;;7.77;;
5841;SDS011;2947;52.276;9.946;2022-12-18T00:20:37;12.90;;;6.23;;
5841;SDS011;2947;52.276;9.946;2022-12-18T00:23:05;17.90;;;7.53;;
5841;SDS011;2947;52.276;9.946;2022-12-18T00:25:35;12.47;;;6.30;;
5841;SDS011;2947;52.276;9.946;2022-12-18T00:28:04;13.70;;;6.97;;
5841;SDS011;2947;52.276;9.946;2022-12-18T00:30:30;17.57;;;7.47;;
5841;SDS011;2947;52.276;9.946;2022-12-18T00:32:56;15.97;;;6.50;;
5841;SDS011;2947;52.276;9.946;2022-12-18T00:35:22;12.70;;;7.10;;
5841;SDS011;2947;52.276;9.946;2022-12-18T00:37:48;17.67;;;7.20;;
5841;SDS011;2947;52.276;9.946;2022-12-18T00:40:13;17.40;;;7.30;;
5841;SDS011;2947;52.276;9.946;2022-12-18T00:42:39;20.23;;;8.27;;
5841;SDS011;2947;52.276;9.946;2022-12-18T00:45:24;16.77;;;7.17;;
5841;SDS011;2947;52.276;9.946;2022-12-18T00:47:52;18.07;;;7.70;;
5841;SDS011;2947;52.276;9.946;2022-12-18T00:50:19;12.50;;;6.23;;
5841;SDS011;2947;52.276;9.946;2022-12-18T00:52:46;14.00;;;7.70;;
5841;SDS011;2947;52.276;9.946;2022-12-18T00:55:12;15.97;;;7.37;;
5841;SDS011;2947;52.276;9.946;2022-12-18T00:57:39;15.17;;;7.80;;
5841;SDS011;2947;52.276;9.946;2022-12-18T01:00:05;20.60;;;8.50;;
5841;SDS011;2947;52.276;9.946;2022-12-18T01:02:32;17.20;;;7.33;;
5841;SDS011;2947;52.276;9.946;2022-12-18T01:04:58;22.57;;;8.80;;
5841;SDS011;2947;52.276;9.946;2022-12-18T01:07:24;16.03;;;6.67;;
5841;SDS011;2947;52.276;9.946;2022-12-18T01:09:50;13.97;;;7.37;;
5841;SDS011;2947;52.276;9.946;2022-12-18T01:12:15;21.17;;;7.70;;
5841;SDS011;2947;52.276;9.946;2022-12-18T01:14:41;14.63;;;7.80;;
5841;SDS011;2947;52.276;9.946;2022-12-18T01:17:07;17.00;;;7.60;;
5841;SDS011;2947;52.276;9.946;2022-12-18T01:19:32;19.13;;;7.43;;
5841;SDS011;2947;52.276;9.946;2022-12-18T01:21:58;16.47;;;6.63;;
5841;SDS011;2947;52.276;9.946;2022-12-18T01:24:24;16.17;;;8.13;;
5841;SDS011;2947;52.276;9.946;2022-12-18T01:26:50;13.87;;;6.80;;
5841;SDS011;2947;52.276;9.946;2022-12-18T01:29:16;19.53;;;8.93;;
5841;SDS011;2947;52.276;9.946;2022-12-18T01:31:41;17.70;;;7.10;;
5841;SDS011;2947;52.276;9.946;2022-12-18T01:34:08;17.67;;;8.93;;
5841;SDS011;2947;52.276;9.946;2022-12-18T01:36:35;15.07;;;7.20;;
5841;SDS011;2947;52.276;9.946;2022-12-18T01:39:05;20.50;;;7.27;;
5841;SDS011;2947;52.276;9.946;2022-12-18T01:41:35;19.90;;;7.83;;
5841;SDS011;2947;52.276;9.946;2022-12-18T01:47:35;16.97;;;7.10;;
5841;SDS011;2947;52.276;9.946;2022-12-18T01:50:49;16.33;;;8.13;;
5841;SDS011;2947;52.276;9.946;2022-12-18T01:53:05;17.73;;;6.60;;
5841;SDS011;2947;52.276;9.946;2022-12-18T01:55:45;19.63;;;7.13;;
5841;SDS011;2947;52.276;9.946;2022-12-18T01:58:14;14.60;;;7.93;;
5841;SDS011;2947;52.276;9.946;2022-12-18T02:00:41;15.17;;;6.70;;
5841;SDS011;2947;52.276;9.946;2022-12-18T02:03:07;20.77;;;6.87;;
5841;SDS011;2947;52.276;9.946;2022-12-18T02:08:28;20.20;;;6.90;;
5841;SDS011;2947;52.276;9.946;2022-12-18T02:11:11;13.63;;;6.57;;
5841;SDS011;2947;52.276;9.946;2022-12-18T02:17:03;13.63;;;6.20;;
5841;SDS011;2947;52.276;9.946;2022-12-18T02:25:52;17.50;;;7.23;;
5841;SDS011;2947;52.276;9.946;2022-12-18T02:29:28;13.50;;;6.40;;
5841;SDS011;2947;52.276;9.946;2022-12-18T02:31:51;15.30;;;6.87;;
5841;SDS011;2947;52.276;9.946;2022-12-18T02:34:22;17.17;;;6.20;;
5841;SDS011;2947;52.276;9.946;2022-12-18T02:36:53;13.20;;;6.70;;
5841;SDS011;2947;52.276;9.946;2022-12-18T02:39:21;15.33;;;6.03;;
5841;SDS011;2947;52.276;9.946;2022-12-18T02:41:50;13.60;;;6.37;;
5841;SDS011;2947;52.276;9.946;2022-12-18T02:44:17;15.97;;;8.23;;
5841;SDS011;2947;52.276;9.946;2022-12-18T02:46:43;16.20;;;7.40;;
5841;SDS011;2947;52.276;9.946;2022-12-18T02:57:53;10.50;;;6.27;;
5841;SDS011;2947;52.276;9.946;2022-12-18T03:00:20;18.03;;;7.07;;
5841;SDS011;2947;52.276;9.946;2022-12-18T03:02:55;17.03;;;7.33;;
5841;SDS011;2947;52.276;9.946;2022-12-18T03:05:31;17.70;;;6.80;;
5841;SDS011;2947;52.276;9.946;2022-12-18T03:08:07;12.90;;;6.67;;
5841;SDS011;2947;52.276;9.946;2022-12-18T03:10:39;17.23;;;7.50;;
5841;SDS011;2947;52.276;9.946;2022-12-18T03:13:17;14.73;;;7.00;;
5841;SDS011;2947;52.276;9.946;2022-12-18T03:15:54;15.70;;;6.83;;
5841;SDS011;2947;52.276;9.946;2022-12-18T03:18:30;13.33;;;6.60;;
5841;SDS011;2947;52.276;9.946;2022-12-18T03:21:04;19.37;;;6.33;;
5841;SDS011;2947;52.276;9.946;2022-12-18T03:23:49;17.50;;;7.20;;
5841;SDS011;2947;52.276;9.946;2022-12-18T03:26:18;19.37;;;6.63;;
5841;SDS011;2947;52.276;9.946;2022-12-18T03:28:55;14.50;;;5.70;;
5841;SDS011;2947;52.276;9.946;2022-12-18T03:31:31;14.90;;;7.60;;
5841;SDS011;2947;52.276;9.946;2022-12-18T03:34:12;17.40;;;6.77;;
5841;SDS011;2947;52.276;9.946;2022-12-18T03:36:42;12.73;;;5.93;;
5841;SDS011;2947;52.276;9.946;2022-12-18T03:39:08;15.07;;;7.33;;
5841;SDS011;2947;52.276;9.946;2022-12-18T03:41:38;18.10;;;6.30;;
5841;SDS011;2947;52.276;9.946;2022-12-18T03:44:38;13.90;;;5.83;;
5841;SDS011;2947;52.276;9.946;2022-12-18T03:47:24;12.77;;;6.00;;
5841;SDS011;2947;52.276;9.946;2022-12-18T03:50:16;10.97;;;4.80;;
5841;SDS011;2947;52.276;9.946;2022-12-18T03:52:53;14.17;;;6.23;;
5841;SDS011;2947;52.276;9.946;2022-12-18T03:55:31;15.27;;;7.00;;
5841;SDS011;2947;52.276;9.946;2022-12-18T03:57:59;11.70;;;6.60;;
5841;SDS011;2947;52.276;9.946;2022-12-18T04:00:28;13.37;;;5.73;;
5841;SDS011;2947;52.276;9.946;2022-12-18T04:02:56;11.83;;;6.53;;
5841;SDS011;2947;52.276;9.946;2022-12-18T04:05:25;13.43;;;5.83;;
5841;SDS011;2947;52.276;9.946;2022-12-18T04:07:53;16.13;;;5.77;;
5841;SDS011;2947;52.276;9.946;2022-12-18T04:10:21;11.30;;;6.30;;
5841;SDS011;2947;52.276;9.946;2022-12-18T04:12:47;12.70;;;5.40;;
5841;SDS011;2947;52.276;9.946;2022-12-18T04:15:13;11.33;;;5.57;;
5841;SDS011;2947;52.276;9.946;2022-12-18T04:17:39;20.93;;;6.20;;
5841;SDS011;2947;52.276;9.946;2022-12-18T04:20:13;16.03;;;5.40;;
5841;SDS011;2947;52.276;9.946;2022-12-18T04:22:38;12.17;;;5.10;;
5841;SDS011;2947;52.276;9.946;2022-12-18T04:25:04;15.77;;;5.03;;
5841;SDS011;2947;52.276;9.946;2022-12-18T04:27:30;10.23;;;5.07;;
5841;SDS011;2947;52.276;9.946;2022-12-18T04:29:56;17.20;;;5.33;;
5841;SDS011;2947;52.276;9.946;2022-12-18T04:32:21;13.90;;;6.20;;
5841;SDS011;2947;52.276;9.946;2022-12-18T04:34:47;17.97;;;6.27;;
5841;SDS011;2947;52.276;9.946;2022-12-18T04:37:13;11.40;;;5.30;;
5841;SDS011;2947;52.276;9.946;2022-12-18T04:39:39;15.03;;;6.37;;
5841;SDS011;2947;52.276;9.946;2022-12-18T04:42:04;13.90;;;5.93;;
5841;SDS011;2947;52.276;9.946;2022-12-18T04:44:30;17.20;;;5.83;;
5841;SDS011;2947;52.276;9.946;2022-12-18T04:46:56;16.07;;;6.43;;
5841;SDS011;2947;52.276;9.946;2022-12-18T04:49:21;13.43;;;5.40;;
5841;SDS011;2947;52.276;9.946;2022-12-18T04:51:47;12.93;;;5.33;;
5841;SDS011;2947;52.276;9.946;2022-12-18T04:54:13;14.63;;;6.37;;
5841;SDS011;2947;52.276;9.946;2022-12-18T04:56:39;15.00;;;5.63;;
5841;SDS011;2947;52.276;9.946;2022-12-18T04:59:04;13.43;;;6.23;;
5841;SDS011;2947;52.276;9.946;2022-12-18T05:01:30;9.40;;;5.03;;
5841;SDS011;2947;52.276;9.946;2022-12-18T05:03:59;11.83;;;5.50;;
5841;SDS011;2947;52.276;9.946;2022-12-18T05:06:25;8.87;;;4.83;;
5841;SDS011;2947;52.276;9.946;2022-12-18T05:08:50;17.73;;;6.00;;
5841;SDS011;2947;52.276;9.946;2022-12-18T05:11:16;15.20;;;6.20;;
5841;SDS011;2947;52.276;9.946;2022-12-18T05:13:43;15.57;;;5.70;;
5841;SDS011;2947;52.276;9.946;2022-12-18T05:16:10;20.10;;;5.37;;
5841;SDS011;2947;52.276;9.946;2022-12-18T05:18:36;12.67;;;5.80;;
5841;SDS011;2947;52.276;9.946;2022-12-18T05:21:03;11.27;;;5.60;;
5841;SDS011;2947;52.276;9.946;2022-12-18T05:23:29;17.43;;;5.90;;
5841;SDS011;2947;52.276;9.946;2022-12-18T05:25:55;10.97;;;4.63;;
5841;SDS011;2947;52.276;9.946;2022-12-18T05:28:25;10.20;;;4.97;;
5841;SDS011;2947;52.276;9.946;2022-12-18T05:30:55;14.63;;;5.43;;
5841;SDS011;2947;52.276;9.946;2022-12-18T05:33:23;14.50;;;5.20;;
5841;SDS011;2947;52.276;9.946;2022-12-18T05:35:52;17.17;;;5.70;;
5841;SDS011;2947;52.276;9.946;2022-12-18T05:38:20;13.90;;;4.67;;
5841;SDS011;2947;52.276;9.946;2022-12-18T05:40:47;12.33;;;5.47;;
5841;SDS011;2947;52.276;9.946;2022-12-18T05:43:13;12.80;;;5.23;;
5841;SDS011;2947;52.276;9.946;2022-12-18T05:45:39;12.20;;;5.67;;
5841;SDS011;2947;52.276;9.946;2022-12-18T05:48:06;13.23;;;5.17;;
5841;SDS011;2947;52.276;9.946;2022-12-18T05:50:36;12.47;;;6.50;;
5841;SDS011;2947;52.276;9.946;2022-12-18T05:53:03;12.97;;;5.70;;
5841;SDS011;2947;52.276;9.946;2022-12-18T05:55:36;14.30;;;6.13;;
5841;SDS011;2947;52.276;9.946;2022-12-18T05:58:05;11.03;;;5.30;;
5841;SDS011;2947;52.276;9.946;2022-12-18T06:00:32;12.27;;;5.20;;
5841;SDS011;2947;52.276;9.946;2022-12-18T06:03:01;8.83;;;5.13;;
5841;SDS011;2947;52.276;9.946;2022-12-18T06:05:26;11.03;;;5.27;;
5841;SDS011;2947;52.276;9.946;2022-12-18T06:07:52;12.40;;;5.97;;
5841;SDS011;2947;52.276;9.946;2022-12-18T06:10:18;13.47;;;5.47;;
5841;SDS011;2947;52.276;9.946;2022-12-18T06:12:44;14.20;;;4.70;;
5841;SDS011;2947;52.276;9.946;2022-12-18T06:15:10;14.57;;;5.10;;
5841;SDS011;2947;52.276;9.946;2022-12-18T06:17:36;10.93;;;4.70;;
5841;SDS011;2947;52.276;9.946;2022-12-18T06:20:03;11.07;;;5.10;;
5841;SDS011;2947;52.276;9.946;2022-12-18T06:22:32;12.63;;;5.17;;
5841;SDS011;2947;52.276;9.946;2022-12-18T06:24:58;10.47;;;4.90;;
5841;SDS011;2947;52.276;9.946;2022-12-18T06:27:24;14.97;;;4.90;;
5841;SDS011;2947;52.276;9.946;2022-12-18T06:29:50;10.53;;;4.93;;
5841;SDS011;2947;52.276;9.946;2022-12-18T06:32:15;14.03;;;5.33;;
5841;SDS011;2947;52.276;9.946;2022-12-18T06:34:41;13.07;;;5.67;;
5841;SDS011;2947;52.276;9.946;2022-12-18T06:37:07;16.40;;;7.67;;
5841;SDS011;2947;52.276;9.946;2022-12-18T06:39:33;12.80;;;4.80;;
5841;SDS011;2947;52.276;9.946;2022-12-18T06:41:58;14.60;;;6.70;;
5841;SDS011;2947;52.276;9.946;2022-12-18T06:44:24;13.87;;;6.67;;
5841;SDS011;2947;52.276;9.946;2022-12-18T06:46:50;12.30;;;5.47;;
5841;SDS011;2947;52.276;9.946;2022-12-18T06:49:15;13.73;;;5.80;;
5841;SDS011;2947;52.276;9.946;2022-12-18T06:51:41;9.70;;;5.37;;
5841;SDS011;2947;52.276;9.946;2022-12-18T06:54:07;13.63;;;6.60;;
5841;SDS011;2947;52.276;9.946;2022-12-18T06:56:33;12.47;;;6.20;;
5841;SDS011;2947;52.276;9.946;2022-12-18T06:58:59;12.03;;;6.00;;
5841;SDS011;2947;52.276;9.946;2022-12-18T07:01:25;14.43;;;6.63;;
5841;SDS011;2947;52.276;9.946;2022-12-18T07:03:51;17.90;;;6.60;;
5841;SDS011;2947;52.276;9.946;2022-12-18T07:06:20;10.10;;;5.77;;
5841;SDS011;2947;52.276;9.946;2022-12-18T07:08:48;17.53;;;5.93;;
5841;SDS011;2947;52.276;9.946;2022-12-18T07:11:15;16.33;;;5.70;;
5841;SDS011;2947;52.276;9.946;2022-12-18T07:13:42;12.77;;;5.67;;
5841;SDS011;2947;52.276;9.946;2022-12-18T07:16:09;9.33;;;5.10;;
5841;SDS011;2947;52.276;9.946;2022-12-18T07:18:40;10.57;;;5.23;;
5841;SDS011;2947;52.276;9.946;2022-12-18T07:21:08;9.07;;;4.47;;
5841;SDS011;2947;52.276;9.946;2022-12-18T07:23:37;13.50;;;4.67;;
5841;SDS011;2947;52.276;9.946;2022-12-18T07:26:03;10.17;;;4.70;;
5841;SDS011;2947;52.276;9.946;2022-12-18T07:28:31;11.33;;;5.17;;
5841;SDS011;2947;52.276;9.946;2022-12-18T07:31:02;9.50;;;4.83;;
5841;SDS011;2947;52.276;9.946;2022-12-18T07:33:29;12.53;;;5.60;;
5841;SDS011;2947;52.276;9.946;2022-12-18T07:35:54;10.23;;;4.23;;
5841;SDS011;2947;52.276;9.946;2022-12-18T07:38:20;8.37;;;4.67;;
5841;SDS011;2947;52.276;9.946;2022-12-18T07:40:46;11.73;;;5.73;;
5841;SDS011;2947;52.276;9.946;2022-12-18T07:43:12;11.80;;;5.87;;
5841;SDS011;2947;52.276;9.946;2022-12-18T07:45:37;15.60;;;5.80;;
5841;SDS011;2947;52.276;9.946;2022-12-18T07:48:03;9.83;;;4.40;;
5841;SDS011;2947;52.276;9.946;2022-12-18T07:50:29;11.93;;;4.90;;
5841;SDS011;2947;52.276;9.946;2022-12-18T07:52:55;6.90;;;3.97;;
5841;SDS011;2947;52.276;9.946;2022-12-18T07:55:20;6.50;;;3.70;;
5841;SDS011;2947;52.276;9.946;2022-12-18T07:57:46;8.50;;;4.03;;
5841;SDS011;2947;52.276;9.946;2022-12-18T08:00:12;12.90;;;5.00;;
5841;SDS011;2947;52.276;9.946;2022-12-18T08:02:38;11.60;;;5.30;;
5841;SDS011;2947;52.276;9.946;2022-12-18T08:05:04;9.20;;;4.33;;
5841;SDS011;2947;52.276;9.946;2022-12-18T08:07:30;10.40;;;5.37;;
5841;SDS011;2947;52.276;9.946;2022-12-18T08:09:58;8.60;;;4.57;;
5841;SDS011;2947;52.276;9.946;2022-12-18T08:12:23;9.40;;;4.17;;
5841;SDS011;2947;52.276;9.946;2022-12-18T08:14:49;15.20;;;5.80;;
5841;SDS011;2947;52.276;9.946;2022-12-18T08:17:15;14.90;;;5.40;;
5841;SDS011;2947;52.276;9.946;2022-12-18T08:19:40;12.73;;;4.83;;
5841;SDS011;2947;52.276;9.946;2022-12-18T08:22:06;10.53;;;4.87;;
5841;SDS011;2947;52.276;9.946;2022-12-18T08:24:32;12.43;;;5.20;;
5841;SDS011;2947;52.276;9.946;2022-12-18T08:26:58;12.00;;;5.50;;
5841;SDS011;2947;52.276;9.946;2022-12-18T08:29:23;9.93;;;4.60;;
5841;SDS011;2947;52.276;9.946;2022-12-18T08:31:49;10.20;;;5.07;;
5841;SDS011;2947;52.276;9.946;2022-12-18T08:34:15;10.33;;;4.60;;
5841;SDS011;2947;52.276;9.946;2022-12-18T08:36:40;9.83;;;4.70;;
5841;SDS011;2947;52.276;9.946;2022-12-18T08:39:06;12.00;;;6.60;;
5841;SDS011;2947;52.276;9.946;2022-12-18T08:41:32;12.63;;;4.70;;
5841;SDS011;2947;52.276;9.946;2022-12-18T08:43:58;8.60;;;4.27;;
5841;SDS011;2947;52.276;9.946;2022-12-18T08:46:42;8.70;;;4.10;;
5841;SDS011;2947;52.276;9.946;2022-12-18T08:49:09;12.70;;;5.00;;
5841;SDS011;2947;52.276;9.946;2022-12-18T08:51:36;12.00;;;4.80;;
5841;SDS011;2947;52.276;9.946;2022-12-18T08:54:03;13.37;;;5.07;;
5841;SDS011;2947;52.276;9.946;2022-12-18T08:56:30;12.43;;;5.23;;
5841;SDS011;2947;52.276;9.946;2022-12-18T08:58:56;11.10;;;5.73;;
5841;SDS011;2947;52.276;9.946;2022-12-18T09:01:22;12.80;;;5.10;;
5841;SDS011;2947;52.276;9.946;2022-12-18T09:03:49;10.50;;;5.27;;
5841;SDS011;2947;52.276;9.946;2022-12-18T09:06:16;13.77;;;6.33;;
5841;SDS011;2947;52.276;9.946;2022-12-18T09:08:44;12.60;;;6.03;;
5841;SDS011;2947;52.276;9.946;2022-12-18T09:11:33;14.90;;;7.40;;
5841;SDS011;2947;52.276;9.946;2022-12-18T09:13:57;14.90;;;6.87;;
5841;SDS011;2947;52.276;9.946;2022-12-18T09:16:25;13.43;;;6.10;;
5841;SDS011;2947;52.276;9.946;2022-12-18T09:18:53;13.17;;;6.57;;
5841;SDS011;2947;52.276;9.946;2022-12-18T09:21:25;13.70;;;6.60;;
5841;SDS011;2947;52.276;9.946;2022-12-18T09:23:57;10.50;;;5.30;;
5841;SDS011;2947;52.276;9.946;2022-12-18T09:26:23;18.57;;;7.67;;
5841;SDS011;2947;52.276;9.946;2022-12-18T09:28:50;14.00;;;7.07;;
5841;SDS011;2947;52.276;9.946;2022-12-18T09:31:17;10.97;;;5.80;;
5841;SDS011;2947;52.276;9.946;2022-12-18T09:33:45;14.93;;;7.00;;
5841;SDS011;2947;52.276;9.946;2022-12-18T09:36:11;11.57;;;6.30;;
5841;SDS011;2947;52.276;9.946;2022-12-18T09:38:40;14.83;;;6.80;;
5841;SDS011;2947;52.276;9.946;2022-12-18T09:41:18;11.80;;;6.33;;
5841;SDS011;2947;52.276;9.946;2022-12-18T09:46:53;12.83;;;5.60;;
5841;SDS011;2947;52.276;9.946;2022-12-18T09:49:42;14.30;;;7.17;;
5841;SDS011;2947;52.276;9.946;2022-12-18T09:54:41;13.43;;;6.10;;
5841;SDS011;2947;52.276;9.946;2022-12-18T09:57:12;13.67;;;5.90;;
5841;SDS011;2947;52.276;9.946;2022-12-18T09:59:46;13.83;;;5.20;;
5841;SDS011;2947;52.276;9.946;2022-12-18T10:02:19;14.23;;;6.47;;
5841;SDS011;2947;52.276;9.946;2022-12-18T10:04:52;11.63;;;6.83;;
5841;SDS011;2947;52.276;9.946;2022-12-18T10:07:50;15.03;;;5.73;;
5841;SDS011;2947;52.276;9.946;2022-12-18T10:10:46;17.20;;;5.67;;
5841;SDS011;2947;52.276;9.946;2022-12-18T10:16:15;13.43;;;6.30;;
5841;SDS011;2947;52.276;9.946;2022-12-18T10:22:01;12.10;;;7.03;;
5841;SDS011;2947;52.276;9.946;2022-12-18T10:27:23;10.70;;;5.37;;
5841;SDS011;2947;52.276;9.946;2022-12-18T10:29:51;13.00;;;6.47;;
5841;SDS011;2947;52.276;9.946;2022-12-18T10:32:20;13.33;;;5.63;;
5841;SDS011;2947;52.276;9.946;2022-12-18T10:34:55;16.57;;;5.87;;
5841;SDS011;2947;52.276;9.946;2022-12-18T10:37:24;7.93;;;4.40;;
5841;SDS011;2947;52.276;9.946;2022-12-18T10:40:12;14.77;;;5.30;;
5841;SDS011;2947;52.276;9.946;2022-12-18T10:42:40;8.20;;;4.17;;
5841;SDS011;2947;52.276;9.946;2022-12-18T10:45:10;10.03;;;4.20;;
5841;SDS011;2947;52.276;9.946;2022-12-18T10:47:43;7.60;;;4.23;;
5841;SDS011;2947;52.276;9.946;2022-12-18T10:50:34;10.77;;;4.07;;
5841;SDS011;2947;52.276;9.946;2022-12-18T10:53:00;9.90;;;3.57;;
5841;SDS011;2947;52.276;9.946;2022-12-18T10:55:32;9.47;;;4.00;;
5841;SDS011;2947;52.276;9.946;2022-12-18T10:58:13;15.73;;;5.40;;
5841;SDS011;2947;52.276;9.946;2022-12-18T11:03:42;8.83;;;3.50;;
5841;SDS011;2947;52.276;9.946;2022-12-18T11:08:41;5.67;;;3.10;;
5841;SDS011;2947;52.276;9.946;2022-12-18T11:11:22;6.63;;;3.37;;
5841;SDS011;2947;52.276;9.946;2022-12-18T11:13:55;11.93;;;4.20;;
5841;SDS011;2947;52.276;9.946;2022-12-18T11:16:30;8.27;;;3.57;;
5841;SDS011;2947;52.276;9.946;2022-12-18T11:22:01;9.37;;;3.93;;
5841;SDS011;2947;52.276;9.946;2022-12-18T11:24:49;6.67;;;3.50;;
5841;SDS011;2947;52.276;9.946;2022-12-18T11:27:37;12.53;;;3.43;;
5841;SDS011;2947;52.276;9.946;2022-12-18T11:30:08;5.73;;;2.70;;
5841;SDS011;2947;52.276;9.946;2022-12-18T11:33:06;7.60;;;3.00;;
5841;SDS011;2947;52.276;9.946;2022-12-18T11:35:49;5.63;;;3.03;;
5841;SDS011;2947;52.276;9.946;2022-12-18T11:38:23;10.90;;;4.90;;
5841;SDS011;2947;52.276;9.946;2022-12-18T11:40:55;9.40;;;4.87;;
5841;SDS011;2947;52.276;9.946;2022-12-18T11:43:45;17.70;;;7.00;;
5841;SDS011;2947;52.276;9.946;2022-12-18T11:46:25;13.57;;;6.10;;
5841;SDS011;2947;52.276;9.946;2022-12-18T11:49:07;14.90;;;7.40;;
5841;SDS011;2947;52.276;9.946;2022-12-18T11:51:50;10.37;;;5.67;;
5841;SDS011;2947;52.276;9.946;2022-12-18T11:54:28;14.47;;;6.10;;
5841;SDS011;2947;52.276;9.946;2022-12-18T11:56:58;10.80;;;5.37;;
5841;SDS011;2947;52.276;9.946;2022-12-18T12:02:42;13.83;;;4.80;;
5841;SDS011;2947;52.276;9.946;2022-12-18T12:08:17;9.30;;;5.53;;
5841;SDS011;2947;52.276;9.946;2022-12-18T12:14:07;12.67;;;6.77;;
5841;SDS011;2947;52.276;9.946;2022-12-18T12:21:58;15.73;;;6.90;;
5841;SDS011;2947;52.276;9.946;2022-12-18T12:24:51;17.30;;;6.27;;
5841;SDS011;2947;52.276;9.946;2022-12-18T12:30:16;11.17;;;6.00;;
5841;SDS011;2947;52.276;9.946;2022-12-18T12:38:43;15.30;;;7.30;;
5841;SDS011;2947;52.276;9.946;2022-12-18T12:41:37;18.80;;;7.87;;
5841;SDS011;2947;52.276;9.946;2022-12-18T12:44:28;23.77;;;9.00;;
5841;SDS011;2947;52.276;9.946;2022-12-18T12:47:04;17.47;;;8.97;;
5841;SDS011;2947;52.276;9.946;2022-12-18T12:49:40;22.57;;;9.00;;
5841;SDS011;2947;52.276;9.946;2022-12-18T12:52:13;18.93;;;8.80;;
5841;SDS011;2947;52.276;9.946;2022-12-18T12:54:46;16.10;;;8.40;;
5841;SDS011;2947;52.276;9.946;2022-12-18T13:00:13;15.97;;;7.40;;
5841;SDS011;2947;52.276;9.946;2022-12-18T13:06:02;21.27;;;9.40;;
5841;SDS011;2947;52.276;9.946;2022-12-18T13:08:52;18.03;;;9.57;;
5841;SDS011;2947;52.276;9.946;2022-12-18T13:11:57;20.10;;;10.50;;
5841;SDS011;2947;52.276;9.946;2022-12-18T13:14:38;21.17;;;9.80;;
5841;SDS011;2947;52.276;9.946;2022-12-18T13:22:58;23.00;;;11.00;;
5841;SDS011;2947;52.276;9.946;2022-12-18T13:48:24;31.07;;;13.77;;
5841;SDS011;2947;52.276;9.946;2022-12-18T13:51:15;31.07;;;13.53;;
5841;SDS011;2947;52.276;9.946;2022-12-18T13:53:53;30.47;;;13.30;;
5841;SDS011;2947;52.276;9.946;2022-12-18T13:56:25;32.90;;;14.77;;
5841;SDS011;2947;52.276;9.946;2022-12-18T14:01:51;27.10;;;10.50;;
5841;SDS011;2947;52.276;9.946;2022-12-18T14:06:57;31.53;;;13.53;;
5841;SDS011;2947;52.276;9.946;2022-12-18T14:09:51;27.40;;;12.17;;
5841;SDS011;2947;52.276;9.946;2022-12-18T14:12:24;33.70;;;13.47;;
5841;SDS011;2947;52.276;9.946;2022-12-18T14:18:23;24.30;;;11.97;;
5841;SDS011;2947;52.276;9.946;2022-12-18T14:20:58;25.90;;;10.77;;
5841;SDS011;2947;52.276;9.946;2022-12-18T14:23:27;27.10;;;11.60;;
5841;SDS011;2947;52.276;9.946;2022-12-18T14:26:21;27.83;;;14.60;;
5841;SDS011;2947;52.276;9.946;2022-12-18T14:28:54;28.70;;;12.87;;
5841;SDS011;2947;52.276;9.946;2022-12-18T14:31:26;36.63;;;14.17;;
5841;SDS011;2947;52.276;9.946;2022-12-18T14:33:55;37.30;;;14.43;;
5841;SDS011;2947;52.276;9.946;2022-12-18T14:36:25;34.83;;;14.77;;
5841;SDS011;2947;52.276;9.946;2022-12-18T14:38:54;29.83;;;11.90;;
5841;SDS011;2947;52.276;9.946;2022-12-18T14:41:22;28.70;;;11.50;;
5841;SDS011;2947;52.276;9.946;2022-12-18T14:43:50;30.93;;;11.77;;
5841;SDS011;2947;52.276;9.946;2022-12-18T14:52:02;30.40;;;12.80;;
5841;SDS011;2947;52.276;9.946;2022-12-18T14:54:30;32.50;;;13.37;;
5841;SDS011;2947;52.276;9.946;2022-12-18T14:59:28;31.27;;;13.37;;
5841;SDS011;2947;52.276;9.946;2022-12-18T15:04:39;24.77;;;10.47;;
5841;SDS011;2947;52.276;9.946;2022-12-18T15:07:13;40.67;;;12.87;;
5841;SDS011;2947;52.276;9.946;2022-12-18T15:18:05;29.87;;;13.83;;
5841;SDS011;2947;52.276;9.946;2022-12-18T15:23:34;29.90;;;12.13;;
5841;SDS011;2947;52.276;9.946;2022-12-18T15:26:12;28.53;;;12.20;;
5841;SDS011;2947;52.276;9.946;2022-12-18T15:28:46;34.23;;;12.60;;
5841;SDS011;2947;52.276;9.946;2022-12-18T15:33:43;27.73;;;11.67;;
5841;SDS011;2947;52.276;9.946;2022-12-18T15:36:28;28.50;;;10.90;;
5841;SDS011;2947;52.276;9.946;2022-12-18T15:38:55;28.53;;;12.77;;
5841;SDS011;2947;52.276;9.946;2022-12-18T15:41:22;31.47;;;12.17;;
5841;SDS011;2947;52.276;9.946;2022-12-18T15:43:49;30.73;;;12.27;;
5841;SDS011;2947;52.276;9.946;2022-12-18T15:46:17;33.40;;;13.93;;
5841;SDS011;2947;52.276;9.946;2022-12-18T15:48:45;30.13;;;11.37;;
5841;SDS011;2947;52.276;9.946;2022-12-18T15:51:17;36.53;;;13.97;;
5841;SDS011;2947;52.276;9.946;2022-12-18T15:53:51;25.77;;;11.07;;
5841;SDS011;2947;52.276;9.946;2022-12-18T15:56:21;27.77;;;12.73;;
5841;SDS011;2947;52.276;9.946;2022-12-18T15:59:13;24.53;;;11.90;;
5841;SDS011;2947;52.276;9.946;2022-12-18T16:01:42;25.83;;;11.13;;
5841;SDS011;2947;52.276;9.946;2022-12-18T16:04:11;28.70;;;13.07;;
5841;SDS011;2947;52.276;9.946;2022-12-18T16:06:39;38.43;;;12.37;;
5841;SDS011;2947;52.276;9.946;2022-12-18T16:09:05;28.67;;;11.70;;
5841;SDS011;2947;52.276;9.946;2022-12-18T16:11:32;30.23;;;11.87;;
5841;SDS011;2947;52.276;9.946;2022-12-18T16:14:04;26.50;;;13.47;;
5841;SDS011;2947;52.276;9.946;2022-12-18T16:16:44;22.57;;;11.17;;
5841;SDS011;2947;52.276;9.946;2022-12-18T16:19:12;23.53;;;10.90;;
5841;SDS011;2947;52.276;9.946;2022-12-18T16:21:39;23.13;;;11.73;;
5841;SDS011;2947;52.276;9.946;2022-12-18T16:24:04;25.90;;;11.97;;
5841;SDS011;2947;52.276;9.946;2022-12-18T16:26:33;28.77;;;12.50;;
5841;SDS011;2947;52.276;9.946;2022-12-18T16:28:58;25.73;;;11.03;;
5841;SDS011;2947;52.276;9.946;2022-12-18T16:31:24;29.33;;;13.33;;
5841;SDS011;2947;52.276;9.946;2022-12-18T16:33:50;30.00;;;12.00;;
5841;SDS011;2947;52.276;9.946;2022-12-18T16:36:48;28.40;;;12.33;;
5841;SDS011;2947;52.276;9.946;2022-12-18T16:39:15;23.37;;;12.00;;
5841;SDS011;2947;52.276;9.946;2022-12-18T16:41:42;27.07;;;12.70;;
5841;SDS011;2947;52.276;9.946;2022-12-18T16:44:08;35.53;;;14.03;;
5841;SDS011;2947;52.276;9.946;2022-12-18T16:46:33;24.67;;;10.73;;
5841;SDS011;2947;52.276;9.946;2022-12-18T16:48:59;22.73;;;11.67;;
5841;SDS011;2947;52.276;9.946;2022-12-18T16:51:26;24.60;;;11.57;;
5841;SDS011;2947;52.276;9.946;2022-12-18T16:53:55;24.10;;;11.73;;
5841;SDS011;2947;52.276;9.946;2022-12-18T16:56:24;22.30;;;12.20;;
5841;SDS011;2947;52.276;9.946;2022-12-18T16:58:50;23.57;;;10.73;;
5841;SDS011;2947;52.276;9.946;2022-12-18T17:01:17;21.77;;;11.60;;
5841;SDS011;2947;52.276;9.946;2022-12-18T17:03:56;24.17;;;10.93;;
5841;SDS011;2947;52.276;9.946;2022-12-18T17:06:25;23.37;;;11.17;;
5841;SDS011;2947;52.276;9.946;2022-12-18T17:08:55;26.37;;;10.87;;
5841;SDS011;2947;52.276;9.946;2022-12-18T17:11:28;23.57;;;12.30;;
5841;SDS011;2947;52.276;9.946;2022-12-18T17:13:56;28.00;;;11.90;;
5841;SDS011;2947;52.276;9.946;2022-12-18T17:16:23;20.47;;;10.70;;
5841;SDS011;2947;52.276;9.946;2022-12-18T17:18:49;21.47;;;11.17;;
5841;SDS011;2947;52.276;9.946;2022-12-18T17:21:16;27.83;;;12.27;;
5841;SDS011;2947;52.276;9.946;2022-12-18T17:23:42;27.47;;;12.63;;
5841;SDS011;2947;52.276;9.946;2022-12-18T17:26:09;21.50;;;13.00;;
5841;SDS011;2947;52.276;9.946;2022-12-18T17:28:36;27.80;;;12.30;;
5841;SDS011;2947;52.276;9.946;2022-12-18T17:31:17;27.20;;;11.23;;
5841;SDS011;2947;52.276;9.946;2022-12-18T17:33:46;27.90;;;11.70;;
5841;SDS011;2947;52.276;9.946;2022-12-18T17:36:12;23.60;;;10.90;;
5841;SDS011;2947;52.276;9.946;2022-12-18T17:38:43;24.13;;;12.20;;
5841;SDS011;2947;52.276;9.946;2022-12-18T17:41:22;24.30;;;10.13;;